Time;durP1;ratioP1;P1;durP2;ratioP2;P2;SDS_P1;SDS_P2;PMS_P1;PMS_P2;Temp;Humidity;BMP_temperature;BMP_pressure;BME280_temperature;BME280_humidity;BME280_pressure;Samples;Min_cycle;Max_cycle;Signal;HPM_P1;HPM_P2
2022/06/28 00:08:48;;;;;;;8.13;5.20;;;;;;;23.98;54.30;100022.06;30866503;28;96777;-74
2022/06/28 00:23:49;;;;;;;12.85;6.22;;;;;;;23.49;55.87;100032.03;30865119;28;96854;-65
2022/06/28 00:38:49;;;;;;;;;;;;;;;23.36;56.50;100086.84;30863558;28;96845;-65
2022/06/28 00:53:49;;;;;;;6.27;5.10;;;;;;;23.17;57.61;100110.03;30864118;28;96686;-69
2022/06/28 01:08:50;;;;;;;7.50;5.10;;;;;;;23.21;58.25;100111.16;30861929;28;96665;-74
2022/06/28 01:23:50;;;;;;;6.20;5.60;;;;;;;23.32;58.70;100119.16;30859823;28;97598;-71
2022/06/28 01:38:51;;;;;;;9.30;6.15;;;;;;;23.65;59.19;100111.03;30858155;28;96794;-68
2022/06/28 01:53:51;;;;;;;;;;;;;;;23.95;59.14;100121.34;30858613;28;96695;-71
2022/06/28 02:08:51;;;;;;;8.10;6.00;;;;;;;24.05;58.66;100136.13;30858703;28;97335;-75
2022/06/28 02:23:52;;;;;;;8.27;6.40;;;;;;;24.09;58.47;100175.31;30855676;28;96684;-68
2022/06/28 02:54:12;;;;;;;6.10;5.50;;;;;;;23.77;57.82;100239.50;30857918;28;97132;-74
2022/06/28 03:09:14;;;;;;;;;;;;;;;23.17;59.46;100257.59;30872537;28;96733;-67
2022/06/28 03:24:15;;;;;;;8.50;5.97;;;;;;;22.66;61.40;100225.09;30871037;28;96725;-64
2022/06/28 03:39:15;;;;;;;11.43;6.00;;;;;;;22.18;63.76;100246.31;30869087;28;96827;-71
2022/06/28 03:54:15;;;;;;;7.10;6.17;;;;;;;21.95;65.66;100290.66;30865999;28;97164;-70
2022/06/28 04:09:17;;;;;;;9.20;7.03;;;;;;;21.81;66.67;100265.75;30865352;28;96727;-69
2022/06/28 04:24:17;;;;;;;8.33;6.63;;;;;;;21.72;67.52;100286.16;30854863;28;97202;-69
2022/06/28 04:39:18;;;;;;;8.30;7.30;;;;;;;21.93;67.99;100301.75;30860826;28;96763;-71
2022/06/28 04:54:18;;;;;;;8.97;7.67;;;;;;;22.22;67.95;100252.88;30859222;28;97333;-69
2022/06/28 05:09:18;;;;;;;8.80;7.77;;;;;;;22.58;67.47;100256.22;30858039;28;97416;-74
2022/06/28 05:24:19;;;;;;;7.87;7.07;;;;;;;23.09;66.58;100285.16;30854425;28;96859;-71
2022/06/28 05:39:19;;;;;;;8.85;7.72;;;;;;;23.42;65.47;100305.19;30856779;28;100216;-70
2022/06/28 05:54:20;;;;;;;9.65;7.10;;;;;;;23.58;64.82;100333.34;30855443;28;97314;-74
2022/06/28 06:09:21;;;;;;;13.70;7.95;;;;;;;23.57;64.41;100348.88;30857459;28;96761;-73
2022/06/28 06:24:21;;;;;;;10.57;8.00;;;;;;;23.36;64.56;100364.09;30851425;28;96794;-73
2022/06/28 06:39:21;;;;;;;8.63;7.20;;;;;;;22.76;65.29;100398.22;30870218;28;97265;-63
2022/06/28 06:54:22;;;;;;;9.37;6.20;;;;;;;22.52;65.69;100439.06;30870851;28;96719;-67
2022/06/28 07:09:25;;;;;;;8.70;5.40;;;;;;;22.07;66.03;100472.38;30867580;28;97432;-65
2022/06/28 07:24:26;;;;;;;7.23;5.37;;;;;;;22.48;66.50;100471.31;30852488;28;97940;-64
2022/06/28 07:39:26;;;;;;;8.73;5.60;;;;;;;23.22;64.73;100488.63;30855466;28;97383;-65
2022/06/28 07:54:26;;;;;;;8.25;5.45;;;;;;;23.51;63.26;100498.59;30855706;28;97283;-70
2022/06/28 08:09:27;;;;;;;5.70;4.15;;;;;;;24.20;61.87;100497.38;30855603;28;97352;-68
2022/06/28 08:24:27;;;;;;;6.28;3.30;;;;;;;25.48;57.88;100517.72;30851646;28;97484;-69
2022/06/28 08:39:27;;;;;;;5.68;3.50;;;;;;;26.97;54.40;100512.09;30851826;28;97327;-67
2022/06/28 08:54:28;;;;;;;9.48;3.80;;;;;;;26.22;52.85;100522.50;30846903;28;97315;-69
2022/06/28 09:09:28;;;;;;;6.35;4.90;;;;;;;24.82;53.81;100547.91;30864912;28;97562;-70
2022/06/28 09:24:29;;;;;;;5.80;3.58;;;;;;;23.69;56.71;100582.63;30846964;28;97391;-70
2022/06/28 09:39:30;;;;;;;4.43;3.70;;;;;;;23.35;58.60;100581.78;30847263;28;97087;-73
2022/06/28 09:54:30;;;;;;;;;;;;;;;24.87;57.28;100597.03;30846106;28;96854;-65
2022/06/28 10:09:31;;;;;;;5.72;3.88;;;;;;;26.62;52.22;100587.41;30872342;28;97697;-66
2022/06/28 10:24:55;;;;;;;4.70;3.60;;;;;;;27.92;48.49;100578.25;30874212;28;97526;-71
2022/06/28 10:40:23;;;;;;;2.80;2.37;;;;;;;28.83;45.36;100591.91;30842530;28;97533;-65
2022/06/28 10:55:23;;;;;;;3.93;3.10;;;;;;;30.54;40.62;100585.75;30738532;28;97686;-73
2022/06/28 11:10:24;;;;;;;4.75;2.95;;;;;;;29.96;41.43;100614.13;30730683;28;96745;-64
2022/06/28 11:27:19;;;;;;;4.35;3.53;;;;;;;31.21;40.05;100615.88;30747920;28;96743;-64
2022/06/28 11:40:49;;;;;;;6.07;3.10;;;;;;;31.48;38.59;100621.78;30746051;28;97152;-69
2022/06/28 11:55:55;;;;;;;4.80;3.00;;;;;;;31.86;37.63;100613.44;30738805;28;97711;-71
2022/06/28 12:10:56;;;;;;;3.60;2.80;;;;;;;31.97;36.93;100606.59;30743110;28;96705;-72
2022/06/28 12:26:00;;;;;;;3.75;2.70;;;;;;;30.77;36.46;100613.47;30733035;28;97174;-73
2022/06/28 12:41:00;;;;;;;3.83;2.50;;;;;;;29.39;38.66;100611.88;30730078;28;97925;-65
2022/06/28 12:56:01;;;;;;;3.28;2.55;;;;;;;30.27;38.96;100595.38;30739976;28;97297;-69
2022/06/28 13:11:02;;;;;;;3.70;2.50;;;;;;;32.26;35.72;100561.44;30736389;28;96701;-70
2022/06/28 13:26:02;;;;;;;4.40;2.90;;;;;;;32.30;34.93;100565.22;30741825;28;97511;-72
2022/06/28 13:41:03;;;;;;;3.78;2.50;;;;;;;31.10;35.49;100561.28;30787763;28;97024;-64
2022/06/28 13:56:04;;;;;;;4.75;3.15;;;;;;;30.19;37.70;100554.81;30828446;28;97492;-66
2022/06/28 14:11:04;;;;;;;4.67;3.10;;;;;;;30.54;37.68;100542.56;30851062;28;96788;-67
2022/06/28 14:26:05;;;;;;;4.30;3.53;;;;;;;31.16;36.52;100527.09;30850574;28;97047;-64
2022/06/28 14:41:05;;;;;;;4.25;3.63;;;;;;;31.22;35.96;100510.19;30849988;28;97113;-65
2022/06/28 14:56:06;;;;;;;5.32;3.53;;;;;;;30.88;35.61;100493.97;30864266;28;96746;-64
2022/06/28 15:11:06;;;;;;;3.10;2.78;;;;;;;30.38;36.26;100489.69;30867704;28;96779;-64
2022/06/28 15:41:26;;;;;;;5.00;2.47;;;;;;;28.91;38.00;100456.16;30859573;28;96966;-68
2022/06/28 15:56:26;;;;;;;5.68;2.90;;;;;;;28.93;37.75;100436.69;30863090;28;107286;-69
2022/06/28 16:11:27;;;;;;;3.83;2.70;;;;;;;28.72;38.68;100455.19;30863412;28;97597;-72
2022/06/28 16:26:27;;;;;;;4.75;2.88;;;;;;;28.63;38.57;100460.44;30860212;28;97126;-69
2022/06/28 16:41:28;;;;;;;4.03;2.88;;;;;;;28.91;37.79;100471.78;30857188;28;96854;-68
2022/06/28 16:56:28;;;;;;;5.57;3.60;;;;;;;27.95;39.93;100487.34;30860740;28;97368;-69
2022/06/28 17:11:29;;;;;;;6.82;3.33;;;;;;;27.43;41.45;100478.44;30777166;28;97174;-67
2022/06/28 17:26:29;;;;;;;6.13;3.35;;;;;;;27.21;42.04;100473.25;30731367;28;96976;-71
2022/06/28 17:41:29;;;;;;;4.50;3.20;;;;;;;27.18;42.45;100462.88;30732205;28;96984;-65
2022/06/28 17:56:30;;;;;;;4.85;3.17;;;;;;;26.97;42.42;100442.91;30731913;28;96801;-72
2022/06/28 18:11:30;;;;;;;11.02;4.18;;;;;;;26.18;44.35;100459.44;30729977;28;97107;-67
2022/06/28 18:26:31;;;;;;;4.93;3.72;;;;;;;25.92;45.77;100456.59;30728565;28;97019;-67
2022/06/28 18:41:31;;;;;;;7.85;4.05;;;;;;;25.64;46.03;100499.56;30729901;28;96746;-64
2022/06/28 18:56:31;;;;;;;5.72;4.45;;;;;;;24.79;47.99;100521.19;30729650;28;97292;-70
2022/06/28 19:11:32;;;;;;;6.75;5.03;;;;;;;24.23;49.86;100524.09;30727738;28;96702;-69
2022/06/28 19:26:32;;;;;;;6.25;4.60;;;;;;;24.04;50.88;100548.06;30725517;28;97313;-65
2022/06/28 19:41:32;;;;;;;5.30;4.60;;;;;;;24.37;50.76;100568.88;30740123;28;96834;-69
2022/06/28 19:56:33;;;;;;;5.47;4.85;;;;;;;24.44;50.65;100568.72;30743102;28;98337;-72
2022/06/28 20:11:36;;;;;;;5.50;4.67;;;;;;;24.02;51.05;100559.19;30735600;28;97140;-69
2022/06/28 20:26:37;;;;;;;10.27;5.77;;;;;;;23.62;52.22;100557.47;30738757;28;96847;-65
2022/06/28 20:56:57;;;;;;;6.83;4.40;;;;;;;24.05;52.34;100539.63;30739237;28;96779;-66
2022/06/28 21:11:58;;;;;;;5.80;4.97;;;;;;;23.80;52.80;100537.38;30741300;28;97522;-66
2022/06/28 21:26:58;;;;;;;8.32;5.25;;;;;;;23.35;53.19;100530.13;30854817;28;96784;-72
2022/06/28 21:41:58;;;;;;;;;;;;;;;22.57;54.71;100520.63;30855269;28;97327;-67
2022/06/28 21:56:59;;;;;;;6.18;5.22;;;;;;;21.91;56.37;100531.72;30857651;28;97380;-68
2022/06/28 22:11:59;;;;;;;9.53;5.97;;;;;;;21.70;57.88;100548.56;30854838;28;97515;-66
2022/06/28 22:26:59;;;;;;;8.17;5.40;;;;;;;21.92;58.96;100555.03;30854038;28;96793;-65
2022/06/28 22:42:00;;;;;;;6.27;4.73;;;;;;;21.88;59.00;100556.56;30854178;28;106946;-70
2022/06/28 22:57:00;;;;;;;7.43;5.23;;;;;;;21.56;59.68;100548.81;30848583;28;96774;-65
2022/06/28 23:12:00;;;;;;;7.03;4.70;;;;;;;21.09;61.16;100527.00;30861218;28;96729;-65
2022/06/28 23:27:01;;;;;;;6.67;5.13;;;;;;;20.86;62.90;100542.16;30873400;28;96838;-75
2022/06/28 23:42:01;;;;;;;8.40;4.78;;;;;;;20.70;63.81;100513.00;30877946;28;96674;-71
2022/06/28 23:57:02;;;;;;;6.60;4.53;;;;;;;20.69;64.43;100457.22;30869413;28;96717;-71
